sensor_id;sensor_type;location;lat;lon;timestamp;pressure;altitude;pressure_sealevel;temperature;humidity
16030;BME280;34770;49.272;11.070;2024-03-23T00:54:08;96966.53;;;12.04;63.06
16030;BME280;34770;49.272;11.070;2024-03-23T00:56:33;96966.66;;;12.02;63.14
16030;BME280;34770;49.272;11.070;2024-03-23T00:58:59;96964.97;;;12.01;62.97
16030;BME280;34770;49.272;11.070;2024-03-23T01:01:24;96951.38;;;12.01;63.20
16030;BME280;34770;49.272;11.070;2024-03-23T01:03:49;96942.56;;;11.99;62.98
16030;BME280;34770;49.272;11.070;2024-03-23T01:06:15;96950.03;;;11.97;62.99
16030;BME280;34770;49.272;11.070;2024-03-23T01:08:40;96951.91;;;11.97;63.12
16030;BME280;34770;49.272;11.070;2024-03-23T01:11:06;96957.50;;;11.95;63.12
16030;BME280;34770;49.272;11.070;2024-03-23T01:13:31;96949.50;;;11.94;62.93
16030;BME280;34770;49.272;11.070;2024-03-23T01:15:57;96954.06;;;11.93;62.97
16030;BME280;34770;49.272;11.070;2024-03-23T01:18:23;96947.97;;;11.91;63.01
16030;BME280;34770;49.272;11.070;2024-03-23T01:20:51;96947.31;;;11.89;63.31
16030;BME280;34770;49.272;11.070;2024-03-23T01:23:17;96939.31;;;11.88;63.10
16030;BME280;34770;49.272;11.070;2024-03-23T01:25:42;96926.56;;;11.80;63.06
16030;BME280;34770;49.272;11.070;2024-03-23T01:28:08;96938.28;;;11.81;62.77
16030;BME280;34770;49.272;11.070;2024-03-23T01:30:34;96943.38;;;11.84;62.85
16030;BME280;34770;49.272;11.070;2024-03-23T01:33:00;96943.53;;;11.82;63.05
16030;BME280;34770;49.272;11.070;2024-03-23T01:35:26;96942.00;;;11.80;62.80
16030;BME280;34770;49.272;11.070;2024-03-23T01:37:51;96942.19;;;11.78;62.77
16030;BME280;34770;49.272;11.070;2024-03-23T01:40:17;96935.91;;;11.78;63.06
16030;BME280;34770;49.272;11.070;2024-03-23T01:42:42;96938.75;;;11.76;62.74
16030;BME280;34770;49.272;11.070;2024-03-23T01:45:09;96935.38;;;11.74;63.04
16030;BME280;34770;49.272;11.070;2024-03-23T01:47:37;96924.69;;;11.73;62.90
16030;BME280;34770;49.272;11.070;2024-03-23T01:50:03;96929.25;;;11.72;63.18
16030;BME280;34770;49.272;11.070;2024-03-23T01:52:29;96920.44;;;11.70;62.73
16030;BME280;34770;49.272;11.070;2024-03-23T01:54:55;96916.16;;;11.68;63.05
16030;BME280;34770;49.272;11.070;2024-03-23T01:57:21;96917.19;;;11.67;63.00
16030;BME280;34770;49.272;11.070;2024-03-23T01:59:47;96901.22;;;11.63;62.74
16030;BME280;34770;49.272;11.070;2024-03-23T02:02:13;96907.66;;;11.62;62.91
16030;BME280;34770;49.272;11.070;2024-03-23T02:04:38;96900.69;;;11.60;62.85
16030;BME280;34770;49.272;11.070;2024-03-23T02:07:05;96895.44;;;11.58;62.96
16030;BME280;34770;49.272;11.070;2024-03-23T02:09:31;96898.31;;;11.57;62.68
16030;BME280;34770;49.272;11.070;2024-03-23T02:11:58;96894.91;;;11.55;63.11
16030;BME280;34770;49.272;11.070;2024-03-23T02:14:23;96893.22;;;11.54;63.00
16030;BME280;34770;49.272;11.070;2024-03-23T02:16:48;96878.81;;;11.53;63.39
16030;BME280;34770;49.272;11.070;2024-03-23T02:19:14;96876.09;;;11.53;63.27
16030;BME280;34770;49.272;11.070;2024-03-23T02:21:39;96875.06;;;11.54;63.34
16030;BME280;34770;49.272;11.070;2024-03-23T02:24:05;96863.53;;;11.52;63.31
16030;BME280;34770;49.272;11.070;2024-03-23T02:26:30;96867.97;;;11.53;63.56
16030;BME280;34770;49.272;11.070;2024-03-23T02:28:56;96858.13;;;11.52;63.33
16030;BME280;34770;49.272;11.070;2024-03-23T02:31:21;96854.56;;;11.52;63.62
16030;BME280;34770;49.272;11.070;2024-03-23T02:33:47;96844.69;;;11.51;63.33
16030;BME280;34770;49.272;11.070;2024-03-23T02:36:12;96839.28;;;11.51;63.35
16030;BME280;34770;49.272;11.070;2024-03-23T02:38:38;96835.88;;;11.49;63.42
16030;BME280;34770;49.272;11.070;2024-03-23T02:41:03;96839.47;;;11.49;63.68
16030;BME280;34770;49.272;11.070;2024-03-23T02:43:29;96827.09;;;11.47;63.63
16030;BME280;34770;49.272;11.070;2024-03-23T02:45:54;96827.22;;;11.45;63.74
16030;BME280;34770;49.272;11.070;2024-03-23T02:48:20;96800.72;;;11.23;63.50
16030;BME280;34770;49.272;11.070;2024-03-23T02:50:45;96827.41;;;11.44;63.93
16030;BME280;34770;49.272;11.070;2024-03-23T02:53:11;96813.84;;;11.44;64.00
16030;BME280;34770;49.272;11.070;2024-03-23T02:55:36;96803.19;;;11.42;63.75
16030;BME280;34770;49.272;11.070;2024-03-23T02:58:02;96790.63;;;11.41;64.16
16030;BME280;34770;49.272;11.070;2024-03-23T03:00:28;96800.63;;;11.41;64.16
16030;BME280;34770;49.272;11.070;2024-03-23T03:02:54;96778.91;;;11.33;63.85
16030;BME280;34770;49.272;11.070;2024-03-23T03:05:19;96782.13;;;11.36;64.31
16030;BME280;34770;49.272;11.070;2024-03-23T03:07:45;96787.38;;;11.38;64.20
16030;BME280;34770;49.272;11.070;2024-03-23T03:10:10;96783.81;;;11.37;64.19
16030;BME280;34770;49.272;11.070;2024-03-23T03:12:37;96786.72;;;11.36;64.51
16030;BME280;34770;49.272;11.070;2024-03-23T03:15:04;96788.56;;;11.35;63.96
16030;BME280;34770;49.272;11.070;2024-03-23T03:17:30;96781.44;;;11.34;64.33
16030;BME280;34770;49.272;11.070;2024-03-23T03:19:55;96784.31;;;11.33;64.35
16030;BME280;34770;49.272;11.070;2024-03-23T03:22:22;96776.34;;;11.31;64.35
16030;BME280;34770;49.272;11.070;2024-03-23T03:24:47;96766.53;;;11.30;63.93
16030;BME280;34770;49.272;11.070;2024-03-23T03:27:13;96762.97;;;11.30;64.02
16030;BME280;34770;49.272;11.070;2024-03-23T03:29:38;96746.34;;;11.25;64.08
16030;BME280;34770;49.272;11.070;2024-03-23T03:32:04;96751.44;;;11.28;64.62
16030;BME280;34770;49.272;11.070;2024-03-23T03:34:30;96740.06;;;11.24;64.54
16030;BME280;34770;49.272;11.070;2024-03-23T03:36:56;96745.16;;;11.27;64.18
16030;BME280;34770;49.272;11.070;2024-03-23T03:39:21;96740.94;;;11.25;64.36
16030;BME280;34770;49.272;11.070;2024-03-23T03:41:48;96742.78;;;11.24;64.61
16030;BME280;34770;49.272;11.070;2024-03-23T03:44:13;96740.94;;;11.25;64.69
16030;BME280;34770;49.272;11.070;2024-03-23T03:46:39;96740.94;;;11.25;65.02
16030;BME280;34770;49.272;11.070;2024-03-23T03:49:04;96746.50;;;11.23;65.03
16030;BME280;34770;49.272;11.070;2024-03-23T03:51:30;96750.06;;;11.24;65.14
16030;BME280;34770;49.272;11.070;2024-03-23T03:53:56;96738.38;;;11.23;65.48
16030;BME280;34770;49.272;11.070;2024-03-23T03:56:21;96724.13;;;11.21;65.17
16030;BME280;34770;49.272;11.070;2024-03-23T03:58:47;96727.69;;;11.22;65.46
16030;BME280;34770;49.272;11.070;2024-03-23T04:01:13;96709.19;;;11.17;65.90
16030;BME280;34770;49.272;11.070;2024-03-23T04:03:38;96726.84;;;11.21;65.75
16030;BME280;34770;49.272;11.070;2024-03-23T04:06:09;96719.56;;;11.22;65.86
16030;BME280;34770;49.272;11.070;2024-03-23T04:08:34;96714.28;;;11.20;65.75
16030;BME280;34770;49.272;11.070;2024-03-23T04:11:00;96715.16;;;11.21;65.96
16030;BME280;34770;49.272;11.070;2024-03-23T04:13:25;96692.59;;;11.20;66.35
16030;BME280;34770;49.272;11.070;2024-03-23T04:15:56;96681.75;;;11.20;66.38
16030;BME280;34770;49.272;11.070;2024-03-23T04:18:22;96671.94;;;11.19;66.37
16030;BME280;34770;49.272;11.070;2024-03-23T04:20:49;96673.81;;;11.19;66.18
16030;BME280;34770;49.272;11.070;2024-03-23T04:23:14;96676.34;;;11.20;66.22
16030;BME280;34770;49.272;11.070;2024-03-23T04:25:40;96674.81;;;11.18;66.83
16030;BME280;34770;49.272;11.070;2024-03-23T04:28:05;96686.69;;;11.17;66.25
16030;BME280;34770;49.272;11.070;2024-03-23T04:30:32;96672.28;;;11.16;66.84
16030;BME280;34770;49.272;11.070;2024-03-23T04:32:57;96671.44;;;11.16;66.74
16030;BME280;34770;49.272;11.070;2024-03-23T04:35:24;96669.72;;;11.15;66.76
16030;BME280;34770;49.272;11.070;2024-03-23T04:37:51;96663.47;;;11.14;66.53
16030;BME280;34770;49.272;11.070;2024-03-23T04:40:21;96658.22;;;11.13;66.69
16030;BME280;34770;49.272;11.070;2024-03-23T04:42:46;96664.63;;;11.12;66.92
16030;BME280;34770;49.272;11.070;2024-03-23T04:45:11;96671.25;;;11.09;66.80
16030;BME280;34770;49.272;11.070;2024-03-23T04:47:40;96667.72;;;11.09;67.09
16030;BME280;34770;49.272;11.070;2024-03-23T04:50:06;96656.69;;;11.02;66.89
16030;BME280;34770;49.272;11.070;2024-03-23T04:52:31;96666.16;;;11.06;67.18
16030;BME280;34770;49.272;11.070;2024-03-23T04:54:57;96674.28;;;11.06;67.23
16030;BME280;34770;49.272;11.070;2024-03-23T04:57:22;96658.38;;;11.03;67.31
16030;BME280;34770;49.272;11.070;2024-03-23T04:59:48;96659.53;;;11.00;67.19
16030;BME280;34770;49.272;11.070;2024-03-23T05:02:14;96657.00;;;10.99;67.33
16030;BME280;34770;49.272;11.070;2024-03-23T05:04:40;96661.56;;;10.98;66.96
16030;BME280;34770;49.272;11.070;2024-03-23T05:07:08;96648.03;;;10.98;66.88
16030;BME280;34770;49.272;11.070;2024-03-23T05:09:34;96648.19;;;10.97;67.24
16030;BME280;34770;49.272;11.070;2024-03-23T05:12:02;96651.41;;;10.92;67.00
16030;BME280;34770;49.272;11.070;2024-03-23T05:14:28;96648.53;;;10.94;67.51
16030;BME280;34770;49.272;11.070;2024-03-23T05:16:54;96653.09;;;10.93;67.31
16030;BME280;34770;49.272;11.070;2024-03-23T05:19:21;96639.88;;;10.90;67.03
16030;BME280;34770;49.272;11.070;2024-03-23T05:21:46;96632.75;;;10.89;67.21
16030;BME280;34770;49.272;11.070;2024-03-23T05:24:12;96612.13;;;10.88;67.17
16030;BME280;34770;49.272;11.070;2024-03-23T05:26:38;96613.13;;;10.87;67.31
16030;BME280;34770;49.272;11.070;2024-03-23T05:29:03;96612.44;;;10.85;66.97
16030;BME280;34770;49.272;11.070;2024-03-23T05:31:30;96612.44;;;10.85;67.05
16030;BME280;34770;49.272;11.070;2024-03-23T05:33:56;96616.16;;;10.84;67.21
16030;BME280;34770;49.272;11.070;2024-03-23T05:36:22;96601.59;;;10.77;66.94
16030;BME280;34770;49.272;11.070;2024-03-23T05:38:49;96588.38;;;10.74;67.24
16030;BME280;34770;49.272;11.070;2024-03-23T05:41:15;96599.56;;;10.79;67.08
16030;BME280;34770;49.272;11.070;2024-03-23T05:43:40;96611.41;;;10.78;67.38
16030;BME280;34770;49.272;11.070;2024-03-23T05:46:06;96608.69;;;10.78;67.18
16030;BME280;34770;49.272;11.070;2024-03-23T05:48:32;96608.88;;;10.77;67.18
16030;BME280;34770;49.272;11.070;2024-03-23T05:50:58;96603.28;;;10.78;67.13
16030;BME280;34770;49.272;11.070;2024-03-23T05:53:24;96615.16;;;10.77;67.80
16030;BME280;34770;49.272;11.070;2024-03-23T05:55:59;96603.78;;;10.74;67.50
16030;BME280;34770;49.272;11.070;2024-03-23T05:58:25;96604.63;;;10.74;67.88
16030;BME280;34770;49.272;11.070;2024-03-23T06:00:57;96606.84;;;10.79;67.80
16030;BME280;34770;49.272;11.070;2024-03-23T06:03:23;96603.28;;;10.78;67.98
16030;BME280;34770;49.272;11.070;2024-03-23T06:05:48;96604.97;;;10.79;67.53
16030;BME280;34770;49.272;11.070;2024-03-23T06:08:14;96603.97;;;10.80;67.96
16030;BME280;34770;49.272;11.070;2024-03-23T06:10:40;96603.78;;;10.82;68.05
16030;BME280;34770;49.272;11.070;2024-03-23T06:13:05;96621.25;;;10.79;68.00
16030;BME280;34770;49.272;11.070;2024-03-23T06:15:31;96635.44;;;10.81;68.08
16030;BME280;34770;49.272;11.070;2024-03-23T06:17:57;96641.72;;;10.82;67.88
16030;BME280;34770;49.272;11.070;2024-03-23T06:20:22;96650.84;;;10.81;68.38
16030;BME280;34770;49.272;11.070;2024-03-23T06:22:47;96654.28;;;10.83;68.25
16030;BME280;34770;49.272;11.070;2024-03-23T06:25:13;96650.72;;;10.82;69.03
16030;BME280;34770;49.272;11.070;2024-03-23T06:27:39;96655.44;;;10.80;69.30
16030;BME280;34770;49.272;11.070;2024-03-23T06:30:05;96654.41;;;10.81;70.20
16030;BME280;34770;49.272;11.070;2024-03-23T06:32:32;96652.56;;;10.82;70.51
16030;BME280;34770;49.272;11.070;2024-03-23T06:34:57;96657.97;;;10.82;70.72
16030;BME280;34770;49.272;11.070;2024-03-23T06:37:23;96646.28;;;10.81;71.22
16030;BME280;34770;49.272;11.070;2024-03-23T06:39:48;96642.59;;;10.82;71.63
16030;BME280;34770;49.272;11.070;2024-03-23T06:42:14;96646.16;;;10.83;72.14
16030;BME280;34770;49.272;11.070;2024-03-23T06:44:39;96658.66;;;10.84;72.40
16030;BME280;34770;49.272;11.070;2024-03-23T06:47:05;96658.84;;;10.82;72.06
16030;BME280;34770;49.272;11.070;2024-03-23T06:49:31;96654.75;;;10.78;72.61
16030;BME280;34770;49.272;11.070;2024-03-23T06:51:56;96671.38;;;10.83;72.80
16030;BME280;34770;49.272;11.070;2024-03-23T06:54:21;96661.69;;;10.81;73.51
16030;BME280;34770;49.272;11.070;2024-03-23T06:56:47;96645.09;;;10.84;73.44
16030;BME280;34770;49.272;11.070;2024-03-23T06:59:12;96644.25;;;10.75;75.15
16030;BME280;34770;49.272;11.070;2024-03-23T07:01:38;96648.31;;;10.71;75.20
16030;BME280;34770;49.272;11.070;2024-03-23T07:04:04;96655.41;;;10.72;75.95
16030;BME280;34770;49.272;11.070;2024-03-23T07:06:30;96657.97;;;10.74;76.16
16030;BME280;34770;49.272;11.070;2024-03-23T07:08:56;96651.69;;;10.73;75.97
16030;BME280;34770;49.272;11.070;2024-03-23T07:11:23;96658.13;;;10.72;77.14
16030;BME280;34770;49.272;11.070;2024-03-23T07:13:53;96663.53;;;10.72;76.99
16030;BME280;34770;49.272;11.070;2024-03-23T07:16:22;96660.16;;;10.70;77.01
16030;BME280;34770;49.272;11.070;2024-03-23T07:18:47;96663.53;;;10.72;77.82
16030;BME280;34770;49.272;11.070;2024-03-23T07:21:12;96660.81;;;10.72;77.67
16030;BME280;34770;49.272;11.070;2024-03-23T07:23:42;96658.63;;;10.68;77.97
16030;BME280;34770;49.272;11.070;2024-03-23T07:26:10;96668.94;;;10.72;77.81
16030;BME280;34770;49.272;11.070;2024-03-23T07:28:35;96672.84;;;10.70;77.76
16030;BME280;34770;49.272;11.070;2024-03-23T07:31:05;96676.25;;;10.72;78.01
16030;BME280;34770;49.272;11.070;2024-03-23T07:33:32;96675.06;;;10.74;77.50
16030;BME280;34770;49.272;11.070;2024-03-23T07:35:58;96676.75;;;10.75;77.86
16030;BME280;34770;49.272;11.070;2024-03-23T07:38:28;96672.38;;;10.74;77.59
16030;BME280;34770;49.272;11.070;2024-03-23T07:43:32;96693.19;;;10.74;77.98
16030;BME280;34770;49.272;11.070;2024-03-23T07:45:59;96688.94;;;10.71;77.60
16030;BME280;34770;49.272;11.070;2024-03-23T07:48:25;96691.97;;;10.68;77.82
16030;BME280;34770;49.272;11.070;2024-03-23T07:50:57;96710.44;;;10.73;77.64
16030;BME280;34770;49.272;11.070;2024-03-23T07:53:23;96722.31;;;10.72;77.77
16030;BME280;34770;49.272;11.070;2024-03-23T07:55:56;96723.31;;;10.71;77.87
16030;BME280;34770;49.272;11.070;2024-03-23T07:58:22;96723.50;;;10.69;77.74
16030;BME280;34770;49.272;11.070;2024-03-23T08:00:48;96714.34;;;10.70;77.58
16030;BME280;34770;49.272;11.070;2024-03-23T08:03:13;96714.19;;;10.72;77.89
16030;BME280;34770;49.272;11.070;2024-03-23T08:05:38;96721.47;;;10.71;77.93
16030;BME280;34770;49.272;11.070;2024-03-23T08:08:04;96715.00;;;10.72;77.65
16030;BME280;34770;49.272;11.070;2024-03-23T08:10:30;96722.31;;;10.72;77.56
16030;BME280;34770;49.272;11.070;2024-03-23T08:12:55;96729.72;;;10.70;77.90
16030;BME280;34770;49.272;11.070;2024-03-23T08:15:20;96724.31;;;10.70;77.93
16030;BME280;34770;49.272;11.070;2024-03-23T08:17:46;96739.56;;;10.71;77.91
16030;BME280;34770;49.272;11.070;2024-03-23T08:20:12;96746.84;;;10.70;78.03
16030;BME280;34770;49.272;11.070;2024-03-23T08:22:37;96757.69;;;10.70;77.87
16030;BME280;34770;49.272;11.070;2024-03-23T08:25:03;96747.00;;;10.69;77.74
16030;BME280;34770;49.272;11.070;2024-03-23T08:27:28;96760.38;;;10.70;77.75
16030;BME280;34770;49.272;11.070;2024-03-23T08:29:53;96760.25;;;10.72;77.64
16030;BME280;34770;49.272;11.070;2024-03-23T08:32:24;96769.38;;;10.71;77.24
16030;BME280;34770;49.272;11.070;2024-03-23T08:34:49;96779.34;;;10.70;77.28
16030;BME280;34770;49.272;11.070;2024-03-23T08:37:15;96786.28;;;10.73;77.04
16030;BME280;34770;49.272;11.070;2024-03-23T08:39:43;96818.47;;;10.76;77.03
16030;BME280;34770;49.272;11.070;2024-03-23T08:42:08;96820.34;;;10.75;77.42
16030;BME280;34770;49.272;11.070;2024-03-23T08:44:34;96832.22;;;10.74;77.28
16030;BME280;34770;49.272;11.070;2024-03-23T08:46:59;96850.00;;;10.77;76.83
16030;BME280;34770;49.272;11.070;2024-03-23T08:49:24;96862.88;;;10.75;76.73
16030;BME280;34770;49.272;11.070;2024-03-23T08:51:50;96860.63;;;10.70;77.02
16030;BME280;34770;49.272;11.070;2024-03-23T08:54:15;96876.00;;;10.70;76.71
16030;BME280;34770;49.272;11.070;2024-03-23T08:56:41;96869.78;;;10.69;76.81
16030;BME280;34770;49.272;11.070;2024-03-23T08:59:06;96887.16;;;10.67;76.15
16030;BME280;34770;49.272;11.070;2024-03-23T09:01:32;96886.16;;;10.68;76.11
16030;BME280;34770;49.272;11.070;2024-03-23T09:03:57;96900.72;;;10.67;75.91
16030;BME280;34770;49.272;11.070;2024-03-23T09:06:23;96932.22;;;10.68;75.55
16030;BME280;34770;49.272;11.070;2024-03-23T09:08:48;96932.41;;;10.66;75.49
16030;BME280;34770;49.272;11.070;2024-03-23T09:11:13;96938.31;;;10.70;74.72
16030;BME280;34770;49.272;11.070;2024-03-23T09:13:39;96945.63;;;10.69;74.48
16030;BME280;34770;49.272;11.070;2024-03-23T09:16:06;96933.41;;;10.65;73.62
16030;BME280;34770;49.272;11.070;2024-03-23T09:18:33;96969.78;;;10.63;72.90
16030;BME280;34770;49.272;11.070;2024-03-23T09:21:00;96969.91;;;10.61;72.64
16030;BME280;34770;49.272;11.070;2024-03-23T09:23:26;96969.22;;;10.59;72.72
16030;BME280;34770;49.272;11.070;2024-03-23T09:25:51;96973.97;;;10.57;71.86
16030;BME280;34770;49.272;11.070;2024-03-23T09:28:17;96959.03;;;10.53;71.33
16030;BME280;34770;49.272;11.070;2024-03-23T09:30:42;96970.88;;;10.52;71.26
16030;BME280;34770;49.272;11.070;2024-03-23T09:33:12;96996.94;;;10.53;71.00
16030;BME280;34770;49.272;11.070;2024-03-23T09:35:42;96999.13;;;10.50;70.65
16030;BME280;34770;49.272;11.070;2024-03-23T09:38:08;96992.84;;;10.49;70.88
16030;BME280;34770;49.272;11.070;2024-03-23T09:40:35;96999.13;;;10.50;70.98
16030;BME280;34770;49.272;11.070;2024-03-23T09:43:00;97005.69;;;10.47;70.48
16030;BME280;34770;49.272;11.070;2024-03-23T09:45:29;97000.97;;;10.49;70.74
16030;BME280;34770;49.272;11.070;2024-03-23T09:47:55;97010.97;;;10.48;70.20
16030;BME280;34770;49.272;11.070;2024-03-23T09:50:21;97013.28;;;10.43;70.40
16030;BME280;34770;49.272;11.070;2024-03-23T09:52:47;97011.81;;;10.31;69.07
16030;BME280;34770;49.272;11.070;2024-03-23T09:55:12;97023.41;;;10.41;69.43
16030;BME280;34770;49.272;11.070;2024-03-23T09:57:39;97009.72;;;10.43;70.00
16030;BME280;34770;49.272;11.070;2024-03-23T10:00:05;97002.38;;;10.35;70.05
16030;BME280;34770;49.272;11.070;2024-03-23T10:02:31;97002.53;;;10.34;70.26
16030;BME280;34770;49.272;11.070;2024-03-23T10:04:58;97012.81;;;10.30;69.70
16030;BME280;34770;49.272;11.070;2024-03-23T10:07:23;97045.16;;;10.32;70.16
16030;BME280;34770;49.272;11.070;2024-03-23T10:09:49;97059.69;;;10.31;70.17
16030;BME280;34770;49.272;11.070;2024-03-23T10:12:17;97058.81;;;10.30;70.03
16030;BME280;34770;49.272;11.070;2024-03-23T10:14:43;97053.41;;;10.30;69.57
16030;BME280;34770;49.272;11.070;2024-03-23T10:17:19;97049.56;;;10.33;69.79
16030;BME280;34770;49.272;11.070;2024-03-23T10:19:50;97048.28;;;10.27;69.68
16030;BME280;34770;49.272;11.070;2024-03-23T10:22:21;97045.47;;;10.29;68.69
16030;BME280;34770;49.272;11.070;2024-03-23T10:24:47;97065.41;;;10.28;68.41
16030;BME280;34770;49.272;11.070;2024-03-23T10:29:44;97082.19;;;10.31;68.67
16030;BME280;34770;49.272;11.070;2024-03-23T10:32:11;97086.47;;;10.34;67.87
16030;BME280;34770;49.272;11.070;2024-03-23T10:34:37;97070.22;;;10.34;67.88
16030;BME280;34770;49.272;11.070;2024-03-23T10:37:03;97059.06;;;10.37;68.13
16030;BME280;34770;49.272;11.070;2024-03-23T10:39:35;97055.38;;;10.38;67.16
16030;BME280;34770;49.272;11.070;2024-03-23T10:42:07;97061.78;;;10.37;66.80
16030;BME280;34770;49.272;11.070;2024-03-23T10:44:33;97071.63;;;10.38;66.26
16030;BME280;34770;49.272;11.070;2024-03-23T10:47:02;97066.22;;;10.38;65.89
16030;BME280;34770;49.272;11.070;2024-03-23T10:49:32;97080.75;;;10.37;65.84
16030;BME280;34770;49.272;11.070;2024-03-23T10:52:02;97077.91;;;10.38;65.40
16030;BME280;34770;49.272;11.070;2024-03-23T10:54:30;97078.72;;;10.39;65.76
16030;BME280;34770;49.272;11.070;2024-03-23T10:57:15;97081.13;;;10.42;66.02
16030;BME280;34770;49.272;11.070;2024-03-23T10:59:44;97074.72;;;10.43;66.20
16030;BME280;34770;49.272;11.070;2024-03-23T11:02:19;97072.88;;;10.43;65.28
16030;BME280;34770;49.272;11.070;2024-03-23T11:04:44;97052.19;;;10.42;65.62
16030;BME280;34770;49.272;11.070;2024-03-23T11:07:32;97062.41;;;10.48;65.51
16030;BME280;34770;49.272;11.070;2024-03-23T11:10:00;97063.28;;;10.49;65.77
16030;BME280;34770;49.272;11.070;2024-03-23T11:12:27;97054.13;;;10.50;65.31
16030;BME280;34770;49.272;11.070;2024-03-23T11:14:53;97046.00;;;10.50;65.46
16030;BME280;34770;49.272;11.070;2024-03-23T11:17:22;97051.41;;;10.50;64.95
16030;BME280;34770;49.272;11.070;2024-03-23T11:20:05;97047.53;;;10.53;64.80
16030;BME280;34770;49.272;11.070;2024-03-23T11:22:47;97049.72;;;10.49;63.91
16030;BME280;34770;49.272;11.070;2024-03-23T11:25:18;97054.13;;;10.50;63.52
16030;BME280;34770;49.272;11.070;2024-03-23T11:27:46;97063.78;;;10.53;63.67
16030;BME280;34770;49.272;11.070;2024-03-23T11:30:17;97073.50;;;10.55;62.75
16030;BME280;34770;49.272;11.070;2024-03-23T11:32:44;97086.00;;;10.56;61.82
16030;BME280;34770;49.272;11.070;2024-03-23T11:35:10;97085.72;;;10.59;61.98
16030;BME280;34770;49.272;11.070;2024-03-23T11:37:38;97102.34;;;10.64;61.88
16030;BME280;34770;49.272;11.070;2024-03-23T11:40:17;97115.91;;;10.64;61.61
16030;BME280;34770;49.272;11.070;2024-03-23T11:42:43;97124.44;;;10.69;61.42
16030;BME280;34770;49.272;11.070;2024-03-23T11:45:09;97122.72;;;10.68;61.00
16030;BME280;34770;49.272;11.070;2024-03-23T11:47:35;97111.19;;;10.66;60.73
16030;BME280;34770;49.272;11.070;2024-03-23T11:50:00;97103.38;;;10.63;61.05
16030;BME280;34770;49.272;11.070;2024-03-23T11:52:26;97091.81;;;10.61;60.48
16030;BME280;34770;49.272;11.070;2024-03-23T11:54:51;97087.44;;;10.60;59.40
16030;BME280;34770;49.272;11.070;2024-03-23T11:57:16;97099.94;;;10.61;59.28
16030;BME280;34770;49.272;11.070;2024-03-23T11:59:42;97118.59;;;10.64;59.13
16030;BME280;34770;49.272;11.070;2024-03-23T12:02:13;97109.88;;;10.70;57.96
16030;BME280;34770;49.272;11.070;2024-03-23T12:04:42;97101.19;;;10.67;57.73
16030;BME280;34770;49.272;11.070;2024-03-23T12:07:12;97104.75;;;10.67;57.44
16030;BME280;34770;49.272;11.070;2024-03-23T12:09:38;97104.06;;;10.65;57.91
16030;BME280;34770;49.272;11.070;2024-03-23T12:12:11;97102.22;;;10.66;58.09
16030;BME280;34770;49.272;11.070;2024-03-23T12:14:40;97099.63;;;10.64;57.24
16030;BME280;34770;49.272;11.070;2024-03-23T12:17:12;97085.56;;;10.61;56.87
16030;BME280;34770;49.272;11.070;2024-03-23T12:19:39;97084.09;;;10.66;56.78
16030;BME280;34770;49.272;11.070;2024-03-23T12:22:05;97081.78;;;10.71;56.55
16030;BME280;34770;49.272;11.070;2024-03-23T12:24:32;97076.44;;;10.79;56.22
16030;BME280;34770;49.272;11.070;2024-03-23T12:27:03;97063.25;;;10.84;55.94
16030;BME280;34770;49.272;11.070;2024-03-23T12:29:30;97079.22;;;10.87;56.03
16030;BME280;34770;49.272;11.070;2024-03-23T12:31:59;97065.53;;;10.89;56.01
16030;BME280;34770;49.272;11.070;2024-03-23T12:34:25;97058.22;;;10.89;55.84
16030;BME280;34770;49.272;11.070;2024-03-23T12:36:50;97058.22;;;10.89;55.39
16030;BME280;34770;49.272;11.070;2024-03-23T12:39:16;97060.78;;;10.91;55.48
16030;BME280;34770;49.272;11.070;2024-03-23T12:41:41;97044.34;;;10.92;55.47
16030;BME280;34770;49.272;11.070;2024-03-23T12:44:07;97053.50;;;10.91;54.85
16030;BME280;34770;49.272;11.070;2024-03-23T12:46:34;97049.25;;;10.89;54.20
16030;BME280;34770;49.272;11.070;2024-03-23T12:49:00;97036.72;;;10.88;53.87
16030;BME280;34770;49.272;11.070;2024-03-23T12:51:25;97032.78;;;10.82;54.04
16030;BME280;34770;49.272;11.070;2024-03-23T12:53:50;97044.16;;;10.86;53.98
16030;BME280;34770;49.272;11.070;2024-03-23T12:56:16;97042.25;;;10.86;53.63
16030;BME280;34770;49.272;11.070;2024-03-23T12:58:42;97064.66;;;10.88;54.24
16030;BME280;34770;49.272;11.070;2024-03-23T13:01:07;97057.41;;;10.89;53.82
16030;BME280;34770;49.272;11.070;2024-03-23T13:03:33;97050.09;;;10.89;54.18
16030;BME280;34770;49.272;11.070;2024-03-23T13:05:58;97053.50;;;10.91;54.09
16030;BME280;34770;49.272;11.070;2024-03-23T13:08:24;97044.91;;;10.96;54.20
16030;BME280;34770;49.272;11.070;2024-03-23T13:10:52;97036.28;;;11.00;53.59
16030;BME280;34770;49.272;11.070;2024-03-23T13:13:18;97033.50;;;11.10;53.67
16030;BME280;34770;49.272;11.070;2024-03-23T13:15:50;97030.69;;;11.20;53.60
16030;BME280;34770;49.272;11.070;2024-03-23T13:18:15;97037.16;;;11.27;53.83
16030;BME280;34770;49.272;11.070;2024-03-23T13:20:40;97028.22;;;11.34;54.11
16030;BME280;34770;49.272;11.070;2024-03-23T13:23:06;97027.94;;;11.45;54.13
16030;BME280;34770;49.272;11.070;2024-03-23T13:25:31;97025.44;;;11.52;53.88
16030;BME280;34770;49.272;11.070;2024-03-23T13:27:58;97037.06;;;11.62;53.58
16030;BME280;34770;49.272;11.070;2024-03-23T13:30:24;97032.53;;;11.71;53.65
16030;BME280;34770;49.272;11.070;2024-03-23T13:32:49;97028.69;;;11.81;53.20
16030;BME280;34770;49.272;11.070;2024-03-23T13:35:15;97036.88;;;11.89;52.75
16030;BME280;34770;49.272;11.070;2024-03-23T13:37:41;97018.72;;;11.90;51.79
16030;BME280;34770;49.272;11.070;2024-03-23T13:40:07;97002.28;;;11.99;51.11
16030;BME280;34770;49.272;11.070;2024-03-23T13:42:33;97009.97;;;12.12;50.83
16030;BME280;34770;49.272;11.070;2024-03-23T13:44:58;97009.31;;;12.18;50.06